createdAt,value
2023-02-12T00:00:03.223Z,22.45
2023-02-12T00:02:41.653Z,22.88
2023-02-12T00:05:08.408Z,21.85
2023-02-12T00:07:35.076Z,21.80
2023-02-12T00:10:01.853Z,19.10
2023-02-12T00:12:28.484Z,25.67
2023-02-12T00:14:55.191Z,24.77
2023-02-12T00:17:21.937Z,20.60
2023-02-12T00:19:48.898Z,19.70
2023-02-12T00:22:15.598Z,20.08
2023-02-12T00:24:42.240Z,20.40
2023-02-12T00:27:09.037Z,19.55
2023-02-12T00:29:36.756Z,22.55
2023-02-12T00:32:05.492Z,19.63
2023-02-12T00:34:32.376Z,20.65
2023-02-12T00:36:59.240Z,20.30
2023-02-12T00:39:26.780Z,20.75
2023-02-12T00:41:53.423Z,20.05
2023-02-12T00:44:20.020Z,19.05
2023-02-12T00:46:46.783Z,18.95
2023-02-12T00:49:14.089Z,22.25
2023-02-12T00:51:40.776Z,24.48
2023-02-12T00:54:10.541Z,23.63
2023-02-12T00:56:37.189Z,23.45
2023-02-12T00:59:03.859Z,21.73
2023-02-12T01:01:30.502Z,19.95
2023-02-12T01:03:57.166Z,17.77
2023-02-12T01:06:26.216Z,21.35
2023-02-12T01:08:53.626Z,20.67
2023-02-12T01:11:20.848Z,22.00
2023-02-12T01:13:48.589Z,18.77
2023-02-12T01:16:19.561Z,20.33
2023-02-12T01:18:46.969Z,25.27
2023-02-12T01:21:20.408Z,22.27
2023-02-12T01:23:47.582Z,19.42
2023-02-12T01:26:15.441Z,20.90
2023-02-12T01:28:44.408Z,20.35
2023-02-12T01:31:14.283Z,22.23
2023-02-12T01:33:41.590Z,21.73
2023-02-12T01:36:09.692Z,21.48
2023-02-12T01:38:36.376Z,19.63
2023-02-12T01:41:15.565Z,24.20
2023-02-12T01:43:43.353Z,23.13
2023-02-12T01:46:13.378Z,23.02
2023-02-12T01:48:44.093Z,24.33
2023-02-12T01:51:16.640Z,20.83
2023-02-12T01:53:50.477Z,18.13
2023-02-12T01:56:18.008Z,21.90
2023-02-12T01:58:46.027Z,23.58
2023-02-12T02:01:21.428Z,19.83
2023-02-12T02:03:52.286Z,22.23
2023-02-12T02:06:29.660Z,20.13
2023-02-12T02:08:57.108Z,21.52
2023-02-12T02:11:42.332Z,23.90
2023-02-12T02:14:27.571Z,21.35
2023-02-12T02:17:11.275Z,20.00
2023-02-12T02:20:05.787Z,27.13
2023-02-12T02:22:59.785Z,21.10
2023-02-12T02:25:54.901Z,19.30
2023-02-12T02:28:47.793Z,19.80
2023-02-12T02:31:40.996Z,18.80
2023-02-12T02:34:16.775Z,20.90
2023-02-12T02:37:13.605Z,19.33
2023-02-12T02:40:11.531Z,21.90
2023-02-12T02:42:47.850Z,19.63
2023-02-12T02:45:45.957Z,19.95
2023-02-12T02:48:18.713Z,21.35
2023-02-12T02:51:01.767Z,22.60
2023-02-12T02:53:31.098Z,21.13
2023-02-12T02:56:01.453Z,22.42
2023-02-12T02:58:35.950Z,20.30
2023-02-12T03:01:20.217Z,20.17
2023-02-12T03:03:58.377Z,19.77
2023-02-12T03:06:32.685Z,21.90
2023-02-12T03:09:05.418Z,21.05
2023-02-12T03:11:34.269Z,24.35
2023-02-12T03:14:13.751Z,23.00
2023-02-12T03:16:48.917Z,27.35
2023-02-12T03:19:22.924Z,22.05
2023-02-12T03:22:09.397Z,26.70
2023-02-12T03:24:44.183Z,19.13
2023-02-12T03:27:28.650Z,20.35
2023-02-12T03:29:55.940Z,19.73
2023-02-12T03:32:37.742Z,19.25
2023-02-12T03:35:31.801Z,19.48
2023-02-12T03:38:08.023Z,19.42
2023-02-12T03:40:37.062Z,20.42
2023-02-12T03:43:25.027Z,22.73
2023-02-12T03:46:00.521Z,24.85
2023-02-12T03:48:42.749Z,22.30
2023-02-12T03:51:39.962Z,25.35
2023-02-12T03:54:09.469Z,20.63
2023-02-12T03:56:47.865Z,19.80
2023-02-12T03:59:15.234Z,19.98
2023-02-12T04:01:42.290Z,24.17
2023-02-12T04:04:10.238Z,23.77
2023-02-12T04:06:37.248Z,23.20
2023-02-12T04:09:07.884Z,21.63
2023-02-12T04:12:19.557Z,20.48
2023-02-12T04:14:54.856Z,17.42
2023-02-12T04:17:50.439Z,19.10
2023-02-12T04:21:00.861Z,21.88
2023-02-12T04:23:49.503Z,21.75
2023-02-12T04:26:28.592Z,19.02
2023-02-12T04:28:58.518Z,21.20
2023-02-12T04:31:38.216Z,21.65
2023-02-12T04:34:34.489Z,24.90
2023-02-12T04:37:33.084Z,24.30
2023-02-12T04:40:02.668Z,18.42
2023-02-12T04:42:29.820Z,19.67
2023-02-12T04:44:56.527Z,18.98
2023-02-12T04:47:23.229Z,24.65
2023-02-12T04:49:49.870Z,21.02
2023-02-12T04:52:16.562Z,22.95
2023-02-12T04:54:43.160Z,22.40
2023-02-12T04:57:09.958Z,22.05
2023-02-12T04:59:36.636Z,22.77
2023-02-12T05:02:03.367Z,23.38
2023-02-12T05:04:30.043Z,24.17
2023-02-12T05:06:56.651Z,17.83
2023-02-12T05:09:23.350Z,24.83
2023-02-12T05:11:49.970Z,25.38
2023-02-12T05:14:16.640Z,23.58
2023-02-12T05:16:43.516Z,26.60
2023-02-12T05:19:10.663Z,25.38
2023-02-12T05:21:38.419Z,23.80
2023-02-12T05:24:05.657Z,25.20
2023-02-12T05:26:32.383Z,25.27
2023-02-12T05:28:59.209Z,26.05
2023-02-12T05:31:26.325Z,26.50
2023-02-12T05:33:53.303Z,25.02
2023-02-12T05:36:22.768Z,26.70
2023-02-12T05:38:50.152Z,31.67
2023-02-12T05:41:23.545Z,21.20
2023-02-12T05:43:50.674Z,25.48
2023-02-12T05:46:19.359Z,24.63
2023-02-12T05:48:46.579Z,29.27
2023-02-12T05:51:19.845Z,27.27
2023-02-12T05:53:46.517Z,29.65
2023-02-12T05:56:14.957Z,30.50
2023-02-12T05:58:44.993Z,31.48
2023-02-12T06:01:17.700Z,26.73
2023-02-12T06:03:44.636Z,25.65
2023-02-12T06:06:11.517Z,31.85
2023-02-12T06:08:38.451Z,29.45
2023-02-12T06:11:07.676Z,22.60
2023-02-12T06:13:34.809Z,24.38
2023-02-12T06:16:01.951Z,24.10
2023-02-12T06:18:28.805Z,27.23
2023-02-12T06:20:55.539Z,25.35
2023-02-12T06:23:23.948Z,23.95
2023-02-12T06:25:55.283Z,25.08
2023-02-12T06:28:22.327Z,27.00
2023-02-12T06:30:48.989Z,27.13
2023-02-12T06:33:15.722Z,25.10
2023-02-12T06:35:42.351Z,26.80
2023-02-12T06:38:09.769Z,27.05
2023-02-12T06:40:36.437Z,24.85
2023-02-12T06:43:03.118Z,26.52
2023-02-12T06:45:30.966Z,27.00
2023-02-12T06:47:57.722Z,25.33
2023-02-12T06:50:24.962Z,24.15
2023-02-12T06:52:51.620Z,23.02
2023-02-12T06:55:18.437Z,25.77
2023-02-12T06:57:45.129Z,25.95
2023-02-12T07:00:12.551Z,26.58
2023-02-12T07:02:39.342Z,26.05
2023-02-12T07:05:06.257Z,31.77
2023-02-12T07:07:33.388Z,22.83
2023-02-12T07:10:00.102Z,25.77
2023-02-12T07:12:26.832Z,25.80
2023-02-12T07:14:53.468Z,25.20
2023-02-12T07:17:20.116Z,24.15
2023-02-12T07:19:46.806Z,23.65
2023-02-12T07:22:13.487Z,24.10
2023-02-12T07:24:40.143Z,24.15
2023-02-12T07:27:06.809Z,29.30
2023-02-12T07:29:33.635Z,27.75
2023-02-12T07:32:01.677Z,23.77
2023-02-12T07:34:28.392Z,26.25
2023-02-12T07:36:54.999Z,21.40
2023-02-12T07:39:21.732Z,25.52
2023-02-12T07:41:48.540Z,21.50
2023-02-12T07:44:15.228Z,24.42
2023-02-12T07:46:48.592Z,34.33
2023-02-12T07:49:18.887Z,24.88
2023-02-12T07:51:46.373Z,26.17
2023-02-12T07:54:13.446Z,27.77
2023-02-12T07:56:41.642Z,27.40
2023-02-12T07:59:12.727Z,23.77
2023-02-12T08:01:42.378Z,32.90
2023-02-12T08:04:14.789Z,26.70
2023-02-12T08:06:43.922Z,25.45
2023-02-12T08:09:12.807Z,25.38
2023-02-12T08:11:40.977Z,29.23
2023-02-12T08:14:08.522Z,26.90
2023-02-12T08:16:40.693Z,29.38
2023-02-12T08:19:17.864Z,33.00
2023-02-12T08:21:50.958Z,30.50
2023-02-12T08:24:17.656Z,31.17
2023-02-12T08:26:45.082Z,31.77
2023-02-12T08:29:15.207Z,27.25
2023-02-12T08:31:46.527Z,27.70
2023-02-12T08:34:18.922Z,29.13
2023-02-12T08:36:46.989Z,25.48
2023-02-12T08:39:14.613Z,27.75
2023-02-12T08:41:44.253Z,31.38
2023-02-12T08:44:12.283Z,25.85
2023-02-12T08:46:43.387Z,31.90
2023-02-12T08:49:14.302Z,26.27
2023-02-12T08:51:44.564Z,25.80
2023-02-12T08:54:14.338Z,27.50
2023-02-12T08:56:42.056Z,29.30
2023-02-12T08:59:10.368Z,25.45
2023-02-12T09:01:38.709Z,28.45
2023-02-12T09:04:06.575Z,27.50
2023-02-12T09:06:34.846Z,25.30
2023-02-12T09:09:01.961Z,27.40
2023-02-12T09:11:32.544Z,24.65
2023-02-12T09:14:04.984Z,24.67
2023-02-12T09:16:33.458Z,19.98
2023-02-12T09:19:00.665Z,24.70
2023-02-12T09:21:27.488Z,23.08
2023-02-12T09:23:54.439Z,22.23
2023-02-12T09:26:23.200Z,23.35
2023-02-12T09:28:50.822Z,24.95
2023-02-12T09:31:23.200Z,22.60
2023-02-12T09:33:53.378Z,24.90
2023-02-12T09:36:21.727Z,20.65
2023-02-12T09:38:49.284Z,25.08
2023-02-12T09:41:43.392Z,20.23
2023-02-12T09:44:43.963Z,21.17
2023-02-12T09:47:32.204Z,18.33
2023-02-12T09:50:26.201Z,24.25
2023-02-12T09:52:56.814Z,18.20
2023-02-12T09:55:29.010Z,18.98
2023-02-12T09:57:55.962Z,21.70
2023-02-12T10:00:28.746Z,17.52
2023-02-12T10:02:55.715Z,16.60
2023-02-12T10:05:27.432Z,16.88
2023-02-12T10:08:09.152Z,23.33
2023-02-12T10:11:05.484Z,18.88
2023-02-12T10:13:45.323Z,19.58
2023-02-12T10:16:21.214Z,17.60
2023-02-12T10:19:21.230Z,17.83
2023-02-12T10:22:04.728Z,20.73
2023-02-12T10:24:50.092Z,22.10
2023-02-12T10:27:22.031Z,18.17
2023-02-12T10:29:49.872Z,18.55
2023-02-12T10:32:30.432Z,17.20
2023-02-12T10:34:57.950Z,19.67
2023-02-12T10:37:52.647Z,17.73
2023-02-12T10:40:24.220Z,17.75
2023-02-12T10:42:52.415Z,13.57
2023-02-12T10:45:26.427Z,14.50
2023-02-12T10:48:01.750Z,20.27
2023-02-12T10:50:36.235Z,16.38
2023-02-12T10:53:05.716Z,13.40
2023-02-12T10:55:36.840Z,15.60
2023-02-12T10:58:05.272Z,13.80
2023-02-12T11:00:33.550Z,16.63
2023-02-12T11:03:12.340Z,16.50
2023-02-12T11:05:41.382Z,15.82
2023-02-12T11:08:25.945Z,14.65
2023-02-12T11:10:52.821Z,13.50
2023-02-12T11:13:25.786Z,11.30
2023-02-12T11:15:52.958Z,12.93
2023-02-12T11:18:26.229Z,17.63
2023-02-12T11:20:55.115Z,14.88
2023-02-12T11:23:26.714Z,14.40
2023-02-12T11:26:22.235Z,14.63
2023-02-12T11:29:17.004Z,14.07
2023-02-12T11:32:00.899Z,14.75
2023-02-12T11:34:27.645Z,16.50
2023-02-12T11:36:54.734Z,16.10
2023-02-12T11:39:35.961Z,14.25
2023-02-12T11:42:06.535Z,11.63
2023-02-12T11:44:38.368Z,10.82
2023-02-12T11:47:17.047Z,13.15
2023-02-12T11:49:58.161Z,14.43
2023-02-12T11:52:28.164Z,13.05
2023-02-12T11:55:23.751Z,12.55
2023-02-12T11:58:01.202Z,10.63
2023-02-12T12:01:08.061Z,9.35
2023-02-12T12:04:00.446Z,12.50
2023-02-12T12:06:30.958Z,10.30
2023-02-12T12:09:21.248Z,12.55
2023-02-12T12:11:57.374Z,10.70
2023-02-12T12:14:31.454Z,15.95
2023-02-12T12:17:33.391Z,9.40
2023-02-12T12:20:06.676Z,9.52
2023-02-12T12:23:04.621Z,10.13
2023-02-12T12:25:40.658Z,8.65
2023-02-12T12:28:45.074Z,11.13
2023-02-12T12:31:28.161Z,11.43
2023-02-12T12:34:03.512Z,11.55
2023-02-12T12:37:12.269Z,11.07
2023-02-12T12:40:00.025Z,8.85
2023-02-12T12:42:57.755Z,10.95
2023-02-12T12:45:51.144Z,10.45
2023-02-12T12:48:23.632Z,8.13
2023-02-12T12:51:08.402Z,8.23
2023-02-12T12:53:56.808Z,5.57
2023-02-12T12:56:38.869Z,5.38
2023-02-12T12:59:26.818Z,8.40
2023-02-12T13:02:02.771Z,8.70
2023-02-12T13:04:51.244Z,7.43
2023-02-12T13:07:52.133Z,7.13
2023-02-12T13:10:30.760Z,5.68
2023-02-12T13:13:26.220Z,6.95
2023-02-12T13:16:14.774Z,5.97
2023-02-12T13:19:04.250Z,5.65
2023-02-12T13:22:05.666Z,6.25
2023-02-12T13:24:59.172Z,4.07
2023-02-12T13:27:35.199Z,5.60
2023-02-12T13:30:05.422Z,8.18
2023-02-12T13:32:51.800Z,9.90
2023-02-12T13:35:22.724Z,7.25
2023-02-12T13:37:53.363Z,6.25
2023-02-12T13:40:26.365Z,6.55
2023-02-12T13:42:56.107Z,6.88
2023-02-12T13:48:53.004Z,9.35
2023-02-12T13:51:46.273Z,5.97
2023-02-12T13:54:18.596Z,8.25
2023-02-12T13:56:46.761Z,5.72
2023-02-12T13:59:31.923Z,5.40
2023-02-12T14:02:03.293Z,8.82
2023-02-12T14:04:32.047Z,5.10
2023-02-12T14:07:08.403Z,7.28
2023-02-12T14:09:51.781Z,8.80
2023-02-12T14:12:24.497Z,8.70
2023-02-12T14:15:07.498Z,5.70
2023-02-12T14:17:34.190Z,6.57
2023-02-12T14:20:22.548Z,6.22
2023-02-12T14:22:49.243Z,6.28
2023-02-12T14:25:24.788Z,6.57
2023-02-12T14:28:06.361Z,6.63
2023-02-12T14:30:34.958Z,7.40
2023-02-12T14:33:07.611Z,6.03
2023-02-12T14:35:34.366Z,6.35
2023-02-12T14:38:32.176Z,7.40
2023-02-12T14:41:44.665Z,9.38
2023-02-12T14:44:17.409Z,12.13
2023-02-12T14:46:50.274Z,8.15
2023-02-12T14:49:30.312Z,8.23
2023-02-12T14:52:12.906Z,8.43
2023-02-12T14:54:56.286Z,9.95
2023-02-12T14:57:33.205Z,6.53
2023-02-12T15:00:01.926Z,7.63
2023-02-12T15:02:34.252Z,10.50
2023-02-12T15:05:18.626Z,8.48
2023-02-12T15:08:12.750Z,7.15
2023-02-12T15:11:04.257Z,8.77
2023-02-12T15:13:49.686Z,10.13
2023-02-12T15:16:44.681Z,11.38
2023-02-12T15:19:23.822Z,8.43
2023-02-12T15:21:51.938Z,10.93
2023-02-12T15:24:26.739Z,11.77
2023-02-12T15:26:58.939Z,8.77
2023-02-12T15:29:30.136Z,10.30
2023-02-12T15:31:59.530Z,9.65
2023-02-12T15:34:32.831Z,6.97
2023-02-12T15:37:01.908Z,11.07
2023-02-12T15:39:37.712Z,9.88
2023-02-12T15:42:04.491Z,9.40
2023-02-12T15:44:32.903Z,11.70
2023-02-12T15:47:01.703Z,10.60
2023-02-12T15:49:34.891Z,13.07
2023-02-12T15:52:07.204Z,9.55
2023-02-12T15:54:34.181Z,10.60
2023-02-12T15:57:01.499Z,9.27
2023-02-12T15:59:29.365Z,11.90
2023-02-12T16:02:02.637Z,10.45
2023-02-12T16:04:32.314Z,12.70
2023-02-12T16:07:01.062Z,10.80
2023-02-12T16:09:30.315Z,11.27
2023-02-12T16:12:00.032Z,11.95
2023-02-12T16:14:33.498Z,11.07
2023-02-12T16:17:00.268Z,11.20
2023-02-12T16:19:36.901Z,10.82
2023-02-12T16:22:14.259Z,10.15
2023-02-12T16:24:49.322Z,14.85
2023-02-12T16:27:15.948Z,13.05
2023-02-12T16:29:52.208Z,8.90
2023-02-12T16:32:45.393Z,10.35
2023-02-12T16:35:12.083Z,11.50
2023-02-12T16:37:38.747Z,15.68
2023-02-12T16:40:15.309Z,9.30
2023-02-12T16:42:48.084Z,12.80
2023-02-12T16:45:31.970Z,11.10
2023-02-12T16:48:12.497Z,12.63
2023-02-12T16:50:51.733Z,13.38
2023-02-12T16:53:43.369Z,13.57
2023-02-12T16:56:21.002Z,11.70
2023-02-12T16:58:58.938Z,13.30
2023-02-12T17:01:28.930Z,12.90
2023-02-12T17:03:57.657Z,12.93
2023-02-12T17:06:27.225Z,17.90
2023-02-12T17:08:53.909Z,14.63
2023-02-12T17:11:20.687Z,17.08
2023-02-12T17:13:49.748Z,16.77
2023-02-12T17:16:29.724Z,15.65
2023-02-12T17:18:57.848Z,17.52
2023-02-12T17:21:28.491Z,18.70
2023-02-12T17:23:55.332Z,19.92
2023-02-12T17:26:23.544Z,18.38
2023-02-12T17:28:50.203Z,19.20
2023-02-12T17:31:17.140Z,18.60
2023-02-12T17:33:44.365Z,19.38
2023-02-12T17:36:11.995Z,18.67
2023-02-12T17:38:38.660Z,17.35
2023-02-12T17:41:11.865Z,18.55
2023-02-12T17:43:38.632Z,18.05
2023-02-12T17:46:13.949Z,17.92
2023-02-12T17:48:40.676Z,20.23
2023-02-12T17:51:09.713Z,18.58
2023-02-12T17:53:36.341Z,19.55
2023-02-12T17:56:03.073Z,14.10
2023-02-12T17:58:29.827Z,18.40
2023-02-12T18:00:56.934Z,19.30
2023-02-12T18:03:23.834Z,19.90
2023-02-12T18:05:50.525Z,19.45
2023-02-12T18:08:17.254Z,21.13
2023-02-12T18:10:44.676Z,20.60
2023-02-12T18:13:11.681Z,21.27
2023-02-12T18:15:40.562Z,22.70
2023-02-12T18:18:07.206Z,21.90
2023-02-12T18:20:33.899Z,22.65
2023-02-12T18:23:00.927Z,23.45
2023-02-12T18:25:27.585Z,19.63
2023-02-12T18:27:54.266Z,20.60
2023-02-12T18:30:21.142Z,21.35
2023-02-12T18:32:48.061Z,20.55
2023-02-12T18:35:15.841Z,24.27
2023-02-12T18:37:43.483Z,23.52
2023-02-12T18:40:11.108Z,26.75
2023-02-12T18:42:37.831Z,22.38
2023-02-12T18:45:05.069Z,25.17
2023-02-12T18:47:31.838Z,24.83
2023-02-12T18:49:58.533Z,22.80
2023-02-12T18:52:25.526Z,26.33
2023-02-12T18:54:53.049Z,26.42
2023-02-12T18:57:20.149Z,25.70
2023-02-12T18:59:46.814Z,25.05
2023-02-12T19:02:14.001Z,24.38
2023-02-12T19:04:41.138Z,22.88
2023-02-12T19:07:07.864Z,23.95
2023-02-12T19:09:34.481Z,22.52
2023-02-12T19:12:01.181Z,23.52
2023-02-12T19:14:28.409Z,23.55
2023-02-12T19:16:55.421Z,26.42
2023-02-12T19:19:22.396Z,25.60
2023-02-12T19:21:49.542Z,21.25
2023-02-12T19:24:16.884Z,22.80
2023-02-12T19:26:44.525Z,25.20
2023-02-12T19:29:12.481Z,24.85
2023-02-12T19:31:43.679Z,22.58
2023-02-12T19:34:16.306Z,20.75
2023-02-12T19:36:43.503Z,20.55
2023-02-12T19:39:13.533Z,22.65
2023-02-12T19:41:41.083Z,24.48
2023-02-12T19:44:13.438Z,30.65
2023-02-12T19:46:40.786Z,24.17
2023-02-12T19:49:12.387Z,30.10
2023-02-12T19:51:41.508Z,25.08
2023-02-12T19:54:10.073Z,22.63
2023-02-12T19:56:37.317Z,24.42
2023-02-12T19:59:04.891Z,23.85
2023-02-12T20:01:32.141Z,19.60
2023-02-12T20:03:59.504Z,23.48
2023-02-12T20:06:29.493Z,24.27
2023-02-12T20:08:56.768Z,19.92
2023-02-12T20:11:26.171Z,20.50
2023-02-12T20:13:52.831Z,20.00
2023-02-12T20:16:22.039Z,21.27
2023-02-12T20:18:51.447Z,23.73
2023-02-12T20:21:25.100Z,20.63
2023-02-12T20:23:52.219Z,18.95
2023-02-12T20:26:19.792Z,21.13
2023-02-12T20:28:47.342Z,21.02
2023-02-12T20:31:22.673Z,25.40
2023-02-12T20:33:54.705Z,20.00
2023-02-12T20:36:22.696Z,19.52
2023-02-12T20:38:55.923Z,17.05
2023-02-12T20:41:24.331Z,17.52
2023-02-12T20:43:51.551Z,22.35
2023-02-12T20:46:20.654Z,19.23
2023-02-12T20:48:48.375Z,17.77
2023-02-12T20:51:20.860Z,25.95
2023-02-12T20:53:48.458Z,22.70
2023-02-12T20:56:26.165Z,23.50
2023-02-12T20:58:53.996Z,23.80
2023-02-12T21:01:22.369Z,23.38
2023-02-12T21:03:51.223Z,22.38
2023-02-12T21:06:19.172Z,23.63
2023-02-12T21:08:46.241Z,23.52
2023-02-12T21:11:15.991Z,24.38
2023-02-12T21:13:50.401Z,20.33
2023-02-12T21:16:28.976Z,19.92
2023-02-12T21:18:56.191Z,22.48
2023-02-12T21:21:28.414Z,28.83
2023-02-12T21:23:57.149Z,19.95
2023-02-12T21:26:25.199Z,20.38
2023-02-12T21:28:52.707Z,21.15
2023-02-12T21:31:23.337Z,19.88
2023-02-12T21:33:52.024Z,16.17
2023-02-12T21:36:21.903Z,20.40
2023-02-12T21:38:50.087Z,18.42
2023-02-12T21:41:20.785Z,18.73
2023-02-12T21:43:50.061Z,16.48
2023-02-12T21:46:21.010Z,16.98
2023-02-12T21:48:47.743Z,18.67
2023-02-12T21:51:27.472Z,18.27
2023-02-12T21:53:57.699Z,16.08
2023-02-12T21:56:26.339Z,17.98
2023-02-12T21:58:53.660Z,18.50
2023-02-12T22:01:23.028Z,17.85
2023-02-12T22:03:50.301Z,19.73
2023-02-12T22:06:19.085Z,20.42
2023-02-12T22:08:46.260Z,22.38
2023-02-12T22:11:13.333Z,21.70
2023-02-12T22:13:40.401Z,20.10
2023-02-12T22:16:28.218Z,20.95
2023-02-12T22:18:59.125Z,18.98
2023-02-12T22:21:31.554Z,18.50
2023-02-12T22:24:04.734Z,24.40
2023-02-12T22:26:32.648Z,17.27
2023-02-12T22:29:08.698Z,18.77
2023-02-12T22:31:38.024Z,22.20
2023-02-12T22:34:08.289Z,18.73
2023-02-12T22:36:36.395Z,20.30
2023-02-12T22:39:03.584Z,19.17
2023-02-12T22:41:30.686Z,19.55
2023-02-12T22:44:02.153Z,17.00
2023-02-12T22:46:28.962Z,20.38
2023-02-12T22:48:55.733Z,20.38
2023-02-12T22:51:25.156Z,17.08
2023-02-12T22:53:52.094Z,19.33
2023-02-12T22:56:19.682Z,16.92
2023-02-12T22:58:47.105Z,22.33
2023-02-12T23:01:17.437Z,17.58
2023-02-12T23:03:45.323Z,21.20
2023-02-12T23:06:17.092Z,20.48
2023-02-12T23:08:44.025Z,20.45
2023-02-12T23:11:11.912Z,21.20
2023-02-12T23:13:38.805Z,19.58
2023-02-12T23:16:05.594Z,18.65
2023-02-12T23:18:33.247Z,20.27
2023-02-12T23:21:00.777Z,17.50
2023-02-12T23:23:27.688Z,18.17
2023-02-12T23:25:54.726Z,22.85
2023-02-12T23:28:22.461Z,16.13
2023-02-12T23:30:50.166Z,18.90
2023-02-12T23:33:17.142Z,14.10
2023-02-12T23:35:48.261Z,17.30
2023-02-12T23:38:15.957Z,17.75
2023-02-12T23:40:43.227Z,15.68
2023-02-12T23:43:10.344Z,18.17
2023-02-12T23:45:37.123Z,15.50
2023-02-12T23:48:03.897Z,17.05
2023-02-12T23:50:30.659Z,18.92
2023-02-12T23:52:58.948Z,15.18
2023-02-12T23:55:25.717Z,16.70
2023-02-12T23:57:52.434Z,15.75
